sensor_id;sensor_type;location;lat;lon;timestamp;pressure;altitude;pressure_sealevel;temperature;humidity
35676;BME280;21790;42.668;23.298;2023-04-10T00:37:59;94768.84;;;13.98;36.84
35676;BME280;21790;42.668;23.298;2023-04-10T00:50:46;94738.28;;;14.12;35.60
35676;BME280;21790;42.668;23.298;2023-04-10T01:55:18;94741.53;;;14.46;37.87
35676;BME280;21790;42.668;23.298;2023-04-10T01:57:45;94733.75;;;14.35;37.94
35676;BME280;21790;42.668;23.298;2023-04-10T02:00:14;94735.72;;;14.29;37.88
35676;BME280;21790;42.668;23.298;2023-04-10T02:02:41;94746.34;;;14.45;37.82
35676;BME280;21790;42.668;23.298;2023-04-10T02:05:08;94751.81;;;14.40;38.06
35676;BME280;21790;42.668;23.298;2023-04-10T02:08:16;94753.44;;;14.67;37.70
35676;BME280;21790;42.668;23.298;2023-04-10T02:11:11;94742.16;;;14.76;37.67
35676;BME280;21790;42.668;23.298;2023-04-10T02:13:39;94736.94;;;14.63;37.81
35676;BME280;21790;42.668;23.298;2023-04-10T02:16:06;94739.38;;;14.55;38.06
35676;BME280;21790;42.668;23.298;2023-04-10T02:18:34;94728.25;;;14.76;37.85
35676;BME280;21790;42.668;23.298;2023-04-10T02:21:01;94727.75;;;14.57;38.31
35676;BME280;21790;42.668;23.298;2023-04-10T02:23:28;94736.06;;;14.16;38.49
35676;BME280;21790;42.668;23.298;2023-04-10T03:23:39;94666.09;;;14.18;39.48
35676;BME280;21790;42.668;23.298;2023-04-10T03:26:05;94699.59;;;14.29;39.69
35676;BME280;21790;42.668;23.298;2023-04-10T03:28:31;94706.66;;;14.45;39.32
35676;BME280;21790;42.668;23.298;2023-04-10T03:30:58;94695.97;;;14.23;39.80
35676;BME280;21790;42.668;23.298;2023-04-10T03:33:24;94700.94;;;14.19;40.19
35676;BME280;21790;42.668;23.298;2023-04-10T03:35:50;94703.50;;;14.02;40.33
35676;BME280;21790;42.668;23.298;2023-04-10T03:38:16;94704.19;;;13.97;40.63
35676;BME280;21790;42.668;23.298;2023-04-10T03:40:42;94704.94;;;13.98;40.87
35676;BME280;21790;42.668;23.298;2023-04-10T04:03:49;94701.94;;;14.16;44.07
35676;BME280;21790;42.668;23.298;2023-04-10T04:09:03;94717.13;;;14.55;42.07
35676;BME280;21790;42.668;23.298;2023-04-10T04:14:04;94734.00;;;14.52;42.39
35676;BME280;21790;42.668;23.298;2023-04-10T04:16:30;94737.75;;;14.29;42.78
35676;BME280;21790;42.668;23.298;2023-04-10T04:18:57;94730.66;;;14.28;43.25
35676;BME280;21790;42.668;23.298;2023-04-10T04:21:24;94732.78;;;14.18;43.44
35676;BME280;21790;42.668;23.298;2023-04-10T04:26:21;94730.84;;;14.24;43.37
35676;BME280;21790;42.668;23.298;2023-04-10T04:28:51;94734.19;;;14.28;43.40
35676;BME280;21790;42.668;23.298;2023-04-10T04:31:22;94733.41;;;14.42;43.13
35676;BME280;21790;42.668;23.298;2023-04-10T04:37:04;94736.94;;;14.43;42.90
35676;BME280;21790;42.668;23.298;2023-04-10T04:39:30;94740.41;;;14.38;43.10
35676;BME280;21790;42.668;23.298;2023-04-10T04:48:40;94740.47;;;14.63;42.21
35676;BME280;21790;42.668;23.298;2023-04-10T06:21:04;94766.06;;;17.13;37.73
35676;BME280;21790;42.668;23.298;2023-04-10T06:23:30;94762.50;;;17.01;36.96
35676;BME280;21790;42.668;23.298;2023-04-10T06:25:56;94756.59;;;16.88;36.72
35676;BME280;21790;42.668;23.298;2023-04-10T06:28:22;94755.06;;;16.87;36.78
35676;BME280;21790;42.668;23.298;2023-04-10T06:30:47;94750.72;;;16.81;36.71
35676;BME280;21790;42.668;23.298;2023-04-10T06:33:13;94761.38;;;16.77;36.83
35676;BME280;21790;42.668;23.298;2023-04-10T06:35:38;94757.72;;;16.59;37.14
35676;BME280;21790;42.668;23.298;2023-04-10T06:38:06;94756.03;;;16.30;37.76
35676;BME280;21790;42.668;23.298;2023-04-10T06:40:31;94765.06;;;15.31;39.68
35676;BME280;21790;42.668;23.298;2023-04-10T06:42:58;94753.47;;;15.38;39.11
35676;BME280;21790;42.668;23.298;2023-04-10T06:45:24;94766.84;;;15.55;38.98
35676;BME280;21790;42.668;23.298;2023-04-10T06:47:50;94764.38;;;15.16;39.34
35676;BME280;21790;42.668;23.298;2023-04-10T06:50:16;94774.25;;;15.17;39.47
35676;BME280;21790;42.668;23.298;2023-04-10T06:52:43;94773.34;;;15.26;39.22
35676;BME280;21790;42.668;23.298;2023-04-10T06:55:08;94784.16;;;14.98;39.94
35676;BME280;21790;42.668;23.298;2023-04-10T06:57:34;94779.00;;;14.91;40.03
35676;BME280;21790;42.668;23.298;2023-04-10T07:00:02;94785.53;;;15.08;40.04
35676;BME280;21790;42.668;23.298;2023-04-10T07:02:28;94776.59;;;15.24;39.33
35676;BME280;21790;42.668;23.298;2023-04-10T07:04:54;94747.22;;;15.23;39.03
35676;BME280;21790;42.668;23.298;2023-04-10T07:07:21;94747.94;;;15.18;39.27
35676;BME280;21790;42.668;23.298;2023-04-10T07:09:47;94777.97;;;15.08;39.76
35676;BME280;21790;42.668;23.298;2023-04-10T07:12:13;94779.81;;;14.56;40.38
35676;BME280;21790;42.668;23.298;2023-04-10T07:14:38;94780.81;;;14.74;40.18
35676;BME280;21790;42.668;23.298;2023-04-10T07:17:04;94776.84;;;14.80;40.32
35676;BME280;21790;42.668;23.298;2023-04-10T07:19:30;94776.72;;;14.69;40.33
35676;BME280;21790;42.668;23.298;2023-04-10T07:21:56;94780.66;;;14.42;40.76
35676;BME280;21790;42.668;23.298;2023-04-10T07:24:22;94779.22;;;14.87;39.96
35676;BME280;21790;42.668;23.298;2023-04-10T07:26:48;94781.31;;;14.92;40.16
35676;BME280;21790;42.668;23.298;2023-04-10T07:29:14;94783.47;;;15.03;39.92
35676;BME280;21790;42.668;23.298;2023-04-10T07:31:40;94779.69;;;15.26;39.57
35676;BME280;21790;42.668;23.298;2023-04-10T07:34:06;94778.31;;;15.16;39.40
35676;BME280;21790;42.668;23.298;2023-04-10T07:36:32;94783.66;;;14.39;40.61
35676;BME280;21790;42.668;23.298;2023-04-10T07:38:58;94783.03;;;14.70;40.17
35676;BME280;21790;42.668;23.298;2023-04-10T07:41:24;94775.47;;;14.90;39.62
35676;BME280;21790;42.668;23.298;2023-04-10T07:43:51;94775.94;;;15.09;39.43
35676;BME280;21790;42.668;23.298;2023-04-10T07:46:16;94771.66;;;14.88;40.09
35676;BME280;21790;42.668;23.298;2023-04-10T07:48:42;94789.44;;;14.96;39.67
35676;BME280;21790;42.668;23.298;2023-04-10T07:51:08;94778.66;;;14.63;40.30
35676;BME280;21790;42.668;23.298;2023-04-10T07:53:36;94776.78;;;14.95;39.98
35676;BME280;21790;42.668;23.298;2023-04-10T07:56:23;94779.22;;;15.07;39.73
35676;BME280;21790;42.668;23.298;2023-04-10T07:58:50;94783.13;;;14.75;40.04
35676;BME280;21790;42.668;23.298;2023-04-10T08:01:16;94772.97;;;14.92;39.88
35676;BME280;21790;42.668;23.298;2023-04-10T08:03:43;94790.28;;;14.61;40.12
35676;BME280;21790;42.668;23.298;2023-04-10T08:06:09;94779.63;;;14.80;39.74
35676;BME280;21790;42.668;23.298;2023-04-10T08:08:39;94764.56;;;14.87;39.95
35676;BME280;21790;42.668;23.298;2023-04-10T08:14:00;94780.31;;;14.95;39.83
35676;BME280;21790;42.668;23.298;2023-04-10T08:16:29;94772.38;;;15.08;39.74
35676;BME280;21790;42.668;23.298;2023-04-10T08:22:35;94772.63;;;14.64;40.48
35676;BME280;21790;42.668;23.298;2023-04-10T08:40:36;94771.78;;;14.99;40.14
35676;BME280;21790;42.668;23.298;2023-04-10T09:48:13;94755.56;;;14.97;39.42
35676;BME280;21790;42.668;23.298;2023-04-10T09:50:39;94740.41;;;14.98;39.39
35676;BME280;21790;42.668;23.298;2023-04-10T09:53:15;94740.19;;;15.02;39.40
35676;BME280;21790;42.668;23.298;2023-04-10T09:55:44;94733.75;;;14.70;40.20
35676;BME280;21790;42.668;23.298;2023-04-10T09:58:25;94731.94;;;15.13;39.68
35676;BME280;21790;42.668;23.298;2023-04-10T10:01:21;94738.53;;;14.70;40.30
35676;BME280;21790;42.668;23.298;2023-04-10T10:03:47;94738.13;;;14.77;40.17
35676;BME280;21790;42.668;23.298;2023-04-10T10:06:13;94735.50;;;15.14;39.76
35676;BME280;21790;42.668;23.298;2023-04-10T10:08:39;94734.69;;;15.33;39.09
35676;BME280;21790;42.668;23.298;2023-04-10T10:11:06;94741.72;;;15.29;38.51
35676;BME280;21790;42.668;23.298;2023-04-10T10:13:50;94730.69;;;15.66;37.36
35676;BME280;21790;42.668;23.298;2023-04-10T10:19:40;94738.66;;;15.01;37.83
35676;BME280;21790;42.668;23.298;2023-04-10T10:22:07;94724.84;;;14.86;37.90
35676;BME280;21790;42.668;23.298;2023-04-10T10:24:36;94720.84;;;14.32;38.69
35676;BME280;21790;42.668;23.298;2023-04-10T10:27:03;94707.59;;;14.62;38.37
35676;BME280;21790;42.668;23.298;2023-04-10T10:29:36;94717.59;;;15.20;37.95
35676;BME280;21790;42.668;23.298;2023-04-10T10:32:05;94710.13;;;15.32;37.18
35676;BME280;21790;42.668;23.298;2023-04-10T10:34:31;94700.00;;;15.34;37.06
35676;BME280;21790;42.668;23.298;2023-04-10T10:36:59;94706.09;;;15.59;36.99
35676;BME280;21790;42.668;23.298;2023-04-10T10:47:53;94690.00;;;15.74;36.40
35676;BME280;21790;42.668;23.298;2023-04-10T10:50:20;94691.16;;;15.62;36.54
35676;BME280;21790;42.668;23.298;2023-04-10T10:52:50;94685.72;;;15.78;36.38
35676;BME280;21790;42.668;23.298;2023-04-10T10:58:06;94680.47;;;15.86;36.46
35676;BME280;21790;42.668;23.298;2023-04-10T11:06:02;94661.47;;;16.38;35.88
35676;BME280;21790;42.668;23.298;2023-04-10T11:08:39;94664.16;;;16.64;35.66
35676;BME280;21790;42.668;23.298;2023-04-10T11:11:26;94665.44;;;16.63;35.76
35676;BME280;21790;42.668;23.298;2023-04-10T11:14:15;94645.94;;;16.68;34.94
35676;BME280;21790;42.668;23.298;2023-04-10T11:17:01;94660.47;;;17.06;34.55
35676;BME280;21790;42.668;23.298;2023-04-10T11:19:28;94630.47;;;16.79;34.37
35676;BME280;21790;42.668;23.298;2023-04-10T11:24:26;94632.03;;;17.13;34.23
35676;BME280;21790;42.668;23.298;2023-04-10T11:26:52;94640.44;;;17.30;34.13
35676;BME280;21790;42.668;23.298;2023-04-10T11:32:02;94633.84;;;17.22;33.32
35676;BME280;21790;42.668;23.298;2023-04-10T11:37:04;94622.31;;;16.69;34.38
35676;BME280;21790;42.668;23.298;2023-04-10T11:39:31;94633.16;;;16.51;34.78
35676;BME280;21790;42.668;23.298;2023-04-10T11:44:33;94642.13;;;16.77;34.68
35676;BME280;21790;42.668;23.298;2023-04-10T11:47:11;94643.66;;;16.78;35.23
35676;BME280;21790;42.668;23.298;2023-04-10T11:49:37;94635.00;;;16.70;35.31
35676;BME280;21790;42.668;23.298;2023-04-10T11:52:03;94639.09;;;16.86;35.75
35676;BME280;21790;42.668;23.298;2023-04-10T11:54:59;94630.78;;;17.20;35.77
35676;BME280;21790;42.668;23.298;2023-04-10T12:01:11;94652.31;;;16.91;33.80
35676;BME280;21790;42.668;23.298;2023-04-10T12:03:40;94628.63;;;16.59;34.41
35676;BME280;21790;42.668;23.298;2023-04-10T12:06:12;94619.19;;;16.51;34.59
35676;BME280;21790;42.668;23.298;2023-04-10T12:08:45;94618.78;;;16.63;34.84
35676;BME280;21790;42.668;23.298;2023-04-10T12:11:17;94627.38;;;16.65;35.11
35676;BME280;21790;42.668;23.298;2023-04-10T12:13:45;94601.16;;;16.41;34.91
35676;BME280;21790;42.668;23.298;2023-04-10T12:16:11;94628.13;;;16.60;34.36
35676;BME280;21790;42.668;23.298;2023-04-10T12:18:42;94638.59;;;16.82;39.36
35676;BME280;21790;42.668;23.298;2023-04-10T12:21:11;94624.19;;;17.28;39.42
35676;BME280;21790;42.668;23.298;2023-04-10T13:10:20;94636.63;;;16.35;42.07
35676;BME280;21790;42.668;23.298;2023-04-10T13:12:46;94628.00;;;16.32;41.65
35676;BME280;21790;42.668;23.298;2023-04-10T13:15:18;94625.63;;;16.62;42.18
35676;BME280;21790;42.668;23.298;2023-04-10T13:17:50;94626.69;;;16.87;39.99
35676;BME280;21790;42.668;23.298;2023-04-10T13:20:17;94629.94;;;16.80;38.91
35676;BME280;21790;42.668;23.298;2023-04-10T13:22:45;94619.53;;;16.69;40.00
35676;BME280;21790;42.668;23.298;2023-04-10T13:25:10;94617.75;;;16.61;40.40
35676;BME280;21790;42.668;23.298;2023-04-10T13:27:37;94627.19;;;16.91;39.41
35676;BME280;21790;42.668;23.298;2023-04-10T13:30:04;94594.59;;;16.55;38.67
35676;BME280;21790;42.668;23.298;2023-04-10T13:56:44;94573.41;;;16.80;37.39
35676;BME280;21790;42.668;23.298;2023-04-10T13:59:24;94565.03;;;16.80;37.60
35676;BME280;21790;42.668;23.298;2023-04-10T14:01:53;94569.25;;;16.58;38.43
35676;BME280;21790;42.668;23.298;2023-04-10T14:09:56;94584.28;;;16.66;37.52
35676;BME280;21790;42.668;23.298;2023-04-10T14:17:35;94547.50;;;16.68;37.90
35676;BME280;21790;42.668;23.298;2023-04-10T14:20:04;94574.16;;;17.08;36.88
35676;BME280;21790;42.668;23.298;2023-04-10T14:22:31;94576.94;;;16.80;37.90
35676;BME280;21790;42.668;23.298;2023-04-10T14:28:32;94571.91;;;16.95;36.91
35676;BME280;21790;42.668;23.298;2023-04-10T14:38:14;94571.91;;;17.12;36.70
35676;BME280;21790;42.668;23.298;2023-04-10T15:04:56;94587.56;;;16.65;37.54
35676;BME280;21790;42.668;23.298;2023-04-10T15:14:11;94579.34;;;16.33;38.12
35676;BME280;21790;42.668;23.298;2023-04-10T15:19:07;94585.41;;;16.38;36.83
35676;BME280;21790;42.668;23.298;2023-04-10T15:21:34;94579.38;;;16.50;36.45
35676;BME280;21790;42.668;23.298;2023-04-10T15:34:24;94534.91;;;16.13;36.62
35676;BME280;21790;42.668;23.298;2023-04-10T16:01:04;94559.03;;;16.27;37.09
35676;BME280;21790;42.668;23.298;2023-04-10T17:31:43;94575.91;;;14.39;47.69
35676;BME280;21790;42.668;23.298;2023-04-10T17:34:09;94586.53;;;14.41;48.36
35676;BME280;21790;42.668;23.298;2023-04-10T17:36:36;94580.78;;;14.44;48.88
35676;BME280;21790;42.668;23.298;2023-04-10T17:39:01;94588.72;;;14.57;48.21
35676;BME280;21790;42.668;23.298;2023-04-10T17:41:47;94608.41;;;14.79;47.98
35676;BME280;21790;42.668;23.298;2023-04-10T17:44:14;94608.25;;;14.62;48.86
35676;BME280;21790;42.668;23.298;2023-04-10T17:50:03;94617.88;;;14.21;48.94
35676;BME280;21790;42.668;23.298;2023-04-10T17:52:51;94604.81;;;14.07;49.02
35676;BME280;21790;42.668;23.298;2023-04-10T17:55:23;94609.88;;;14.08;48.86
35676;BME280;21790;42.668;23.298;2023-04-10T17:57:51;94618.50;;;14.10;49.27
35676;BME280;21790;42.668;23.298;2023-04-10T18:03:41;94629.69;;;14.16;50.13
35676;BME280;21790;42.668;23.298;2023-04-10T18:06:12;94626.97;;;14.42;49.93
35676;BME280;21790;42.668;23.298;2023-04-10T18:09:13;94634.63;;;14.47;50.23
35676;BME280;21790;42.668;23.298;2023-04-10T18:32:45;94650.06;;;14.74;49.65
35676;BME280;21790;42.668;23.298;2023-04-10T18:35:21;94638.84;;;14.62;50.15
35676;BME280;21790;42.668;23.298;2023-04-10T18:40:22;94636.56;;;14.41;49.96
35676;BME280;21790;42.668;23.298;2023-04-10T18:42:48;94648.75;;;14.43;50.13
35676;BME280;21790;42.668;23.298;2023-04-10T18:48:45;94628.34;;;14.52;50.11
35676;BME280;21790;42.668;23.298;2023-04-10T18:58:20;94619.53;;;14.33;49.78
35676;BME280;21790;42.668;23.298;2023-04-10T19:04:11;94646.81;;;14.35;49.80
35676;BME280;21790;42.668;23.298;2023-04-10T19:09:59;94640.63;;;14.40;49.56
35676;BME280;21790;42.668;23.298;2023-04-10T19:15:59;94635.50;;;14.58;48.52
35676;BME280;21790;42.668;23.298;2023-04-10T19:19:01;94645.50;;;14.71;48.17
35676;BME280;21790;42.668;23.298;2023-04-10T19:22:02;94638.88;;;14.68;48.16
35676;BME280;21790;42.668;23.298;2023-04-10T19:28:04;94628.47;;;14.63;48.31
35676;BME280;21790;42.668;23.298;2023-04-10T19:30:49;94634.28;;;14.85;47.54
35676;BME280;21790;42.668;23.298;2023-04-10T19:33:50;94636.56;;;14.87;48.04
35676;BME280;21790;42.668;23.298;2023-04-10T19:36:34;94647.16;;;14.83;48.41
35676;BME280;21790;42.668;23.298;2023-04-10T19:39:18;94646.50;;;14.47;49.58
35676;BME280;21790;42.668;23.298;2023-04-10T19:41:50;94637.47;;;14.32;49.89
35676;BME280;21790;42.668;23.298;2023-04-10T19:44:17;94642.41;;;14.43;49.27
35676;BME280;21790;42.668;23.298;2023-04-10T19:46:48;94643.03;;;14.12;50.09
35676;BME280;21790;42.668;23.298;2023-04-10T19:49:19;94627.88;;;14.33;49.43
35676;BME280;21790;42.668;23.298;2023-04-10T19:52:05;94639.03;;;14.18;49.72
35676;BME280;21790;42.668;23.298;2023-04-10T19:54:35;94636.78;;;14.37;49.08
35676;BME280;21790;42.668;23.298;2023-04-10T19:57:04;94633.00;;;14.20;49.40
35676;BME280;21790;42.668;23.298;2023-04-10T20:19:12;94568.06;;;13.57;49.97
35676;BME280;21790;42.668;23.298;2023-04-10T20:21:55;94572.16;;;13.81;49.96
35676;BME280;21790;42.668;23.298;2023-04-10T20:24:43;94592.28;;;13.97;50.31
35676;BME280;21790;42.668;23.298;2023-04-10T20:27:15;94582.16;;;13.94;50.46
35676;BME280;21790;42.668;23.298;2023-04-10T20:29:44;94565.81;;;13.40;51.53
35676;BME280;21790;42.668;23.298;2023-04-10T20:32:24;94558.75;;;13.10;51.61
35676;BME280;21790;42.668;23.298;2023-04-10T20:34:58;94582.31;;;13.50;50.90
35676;BME280;21790;42.668;23.298;2023-04-10T20:37:28;94567.44;;;13.67;50.81
35676;BME280;21790;42.668;23.298;2023-04-10T20:40:15;94581.75;;;14.01;50.59
35676;BME280;21790;42.668;23.298;2023-04-10T20:43:05;94546.06;;;13.94;50.57
35676;BME280;21790;42.668;23.298;2023-04-10T20:45:39;94571.41;;;14.01;50.12
35676;BME280;21790;42.668;23.298;2023-04-10T20:48:10;94549.03;;;13.70;50.13
35676;BME280;21790;42.668;23.298;2023-04-10T20:54:05;94571.94;;;14.25;50.00
35676;BME280;21790;42.668;23.298;2023-04-10T20:56:46;94557.19;;;14.19;49.85
35676;BME280;21790;42.668;23.298;2023-04-10T20:59:20;94583.97;;;14.37;49.63
35676;BME280;21790;42.668;23.298;2023-04-10T21:05:04;94588.53;;;14.20;49.83
35676;BME280;21790;42.668;23.298;2023-04-10T21:07:58;94562.50;;;13.97;49.71
35676;BME280;21790;42.668;23.298;2023-04-10T22:03:03;94561.59;;;13.86;48.45
35676;BME280;21790;42.668;23.298;2023-04-10T22:05:35;94566.59;;;13.81;48.58
35676;BME280;21790;42.668;23.298;2023-04-10T22:08:05;94551.75;;;13.85;48.59
35676;BME280;21790;42.668;23.298;2023-04-10T22:10:46;94556.88;;;13.92;48.18
35676;BME280;21790;42.668;23.298;2023-04-10T22:13:24;94544.38;;;13.81;48.57
35676;BME280;21790;42.668;23.298;2023-04-10T22:15:55;94542.91;;;13.66;48.69
35676;BME280;21790;42.668;23.298;2023-04-10T22:18:30;94539.81;;;13.78;48.31
35676;BME280;21790;42.668;23.298;2023-04-10T22:21:07;94531.59;;;13.69;48.57
35676;BME280;21790;42.668;23.298;2023-04-10T22:23:45;94539.25;;;13.74;48.09
35676;BME280;21790;42.668;23.298;2023-04-10T22:26:27;94534.94;;;13.73;47.89
35676;BME280;21790;42.668;23.298;2023-04-10T22:29:06;94543.63;;;13.81;47.88
35676;BME280;21790;42.668;23.298;2023-04-10T22:45:23;94514.28;;;13.74;47.29
35676;BME280;21790;42.668;23.298;2023-04-10T22:48:06;94530.13;;;14.14;46.70
35676;BME280;21790;42.668;23.298;2023-04-10T22:50:57;94505.16;;;13.74;47.18
35676;BME280;21790;42.668;23.298;2023-04-10T23:04:06;94503.91;;;13.95;46.92
35676;BME280;21790;42.668;23.298;2023-04-10T23:10:10;94497.53;;;13.89;47.46
35676;BME280;21790;42.668;23.298;2023-04-10T23:12:46;94520.94;;;14.29;46.72
35676;BME280;21790;42.668;23.298;2023-04-10T23:18:36;94502.16;;;13.98;47.35
35676;BME280;21790;42.668;23.298;2023-04-10T23:21:28;94520.72;;;14.32;47.01
